Time;durP1;ratioP1;P1;durP2;ratioP2;P2;SDS_P1;SDS_P2;PMS_P1;PMS_P2;Temp;Humidity;BMP_temperature;BMP_pressure;BME280_temperature;BME280_humidity;BME280_pressure;Samples;Min_cycle;Max_cycle;Signal;HPM_P1;HPM_P2
2022/05/07 00:00:12;;;;;;;6.40;5.90;;;;;;;21.04;39.40;95541.78;6195593;28;104721;-59
2022/05/07 00:03:14;;;;;;;6.70;6.20;;;;;;;21.04;39.42;95541.78;6195238;28;103754;-59
2022/05/07 00:06:16;;;;;;;6.63;6.13;;;;;;;21.04;39.50;95552.44;6194687;28;105112;-59
2022/05/07 00:09:18;;;;;;;6.10;5.70;;;;;;;21.01;39.14;95527.19;6189813;28;105199;-59
2022/05/07 00:12:20;;;;;;;6.13;5.63;;;;;;;21.05;39.28;95540.75;6181870;28;103829;-59
2022/05/07 00:15:22;;;;;;;6.00;5.60;;;;;;;21.04;39.30;95542.59;6194744;28;104959;-59
2022/05/07 00:18:24;;;;;;;6.50;6.00;;;;;;;21.04;39.34;95539.13;6203621;28;105126;-59
2022/05/07 00:21:26;;;;;;;6.40;5.93;;;;;;;21.04;39.15;95531.94;6206506;28;104334;-59
2022/05/07 00:24:28;;;;;;;6.33;5.83;;;;;;;21.00;39.41;95530.13;6197999;28;104151;-57
2022/05/07 00:27:30;;;;;;;7.80;7.10;;;;;;;21.03;39.39;95537.56;6208389;28;104793;-59
2022/05/07 00:30:31;;;;;;;8.90;8.23;;;;;;;21.03;39.03;95537.56;6195577;28;103696;-59
2022/05/07 00:33:33;;;;;;;9.70;8.90;;;;;;;21.02;38.95;95530.66;6182695;28;104235;-59
2022/05/07 00:36:35;;;;;;;9.87;9.17;;;;;;;21.03;39.14;95533.03;6191340;28;103358;-59
2022/05/07 00:39:37;;;;;;;11.03;10.20;;;;;;;21.02;38.79;95531.44;6207283;28;103734;-58
2022/05/07 00:42:39;;;;;;;11.53;10.73;;;;;;;21.01;38.99;95537.06;6191525;28;103927;-59
2022/05/07 00:45:40;;;;;;;12.70;11.70;;;;;;;21.02;38.99;95535.97;6197570;28;104767;-60
2022/05/07 00:48:43;;;;;;;13.10;12.00;;;;;;;21.03;38.93;95530.38;6183604;28;104740;-60
2022/05/07 00:51:46;;;;;;;12.63;11.63;;;;;;;20.97;39.11;95514.72;6196093;28;103886;-59
2022/05/07 00:54:48;;;;;;;13.90;12.80;;;;;;;21.00;39.00;95522.13;6208373;28;103642;-60
2022/05/07 00:57:49;;;;;;;13.23;12.20;;;;;;;20.99;39.23;95524.00;6179813;28;103894;-59
2022/05/07 01:00:53;;;;;;;12.77;11.67;;;;;;;20.99;38.96;95520.56;6200034;28;104895;-60
2022/05/07 01:03:56;;;;;;;14.23;13.03;;;;;;;20.99;39.09;95528.53;6197499;28;105174;-59
2022/05/07 01:06:58;;;;;;;13.77;12.67;;;;;;;20.86;38.96;95506.13;6204702;28;104982;-60
2022/05/07 01:10:01;;;;;;;14.67;13.47;;;;;;;20.81;38.90;95500.84;6194495;28;103943;-59
2022/05/07 01:13:04;;;;;;;14.27;13.17;;;;;;;20.98;38.93;95527.75;6204590;28;104990;-58
2022/05/07 01:16:06;;;;;;;14.23;13.03;;;;;;;20.97;39.11;95525.38;6202289;28;104703;-61
2022/05/07 01:19:08;;;;;;;14.00;12.80;;;;;;;20.96;39.20;95529.91;6198002;28;104802;-59
2022/05/07 01:22:10;;;;;;;13.80;12.70;;;;;;;20.93;38.94;95528.63;6198480;28;103702;-60
2022/05/07 01:25:12;;;;;;;12.67;11.67;;;;;;;20.91;38.94;95525.44;6206541;28;103327;-59
2022/05/07 01:28:14;;;;;;;13.37;12.27;;;;;;;20.92;38.74;95535.00;6207684;28;103890;-59
2022/05/07 01:31:16;;;;;;;12.50;11.50;;;;;;;20.96;38.65;95534.44;6195209;28;103873;-59
2022/05/07 01:34:18;;;;;;;12.83;11.80;;;;;;;20.96;38.81;95539.75;6206535;28;105092;-59
2022/05/07 01:37:20;;;;;;;12.30;11.30;;;;;;;20.97;38.71;95538.69;6195948;28;103895;-59
2022/05/07 01:40:21;;;;;;;12.37;11.43;;;;;;;20.97;38.55;95536.03;6201318;28;103895;-61
2022/05/07 01:43:25;;;;;;;12.27;11.37;;;;;;;20.92;38.59;95535.00;6173252;28;103928;-59
2022/05/07 01:49:47;;;;;;;12.00;11.13;;;;;;;20.91;38.23;95528.13;6188747;28;104886;-59
2022/05/07 01:52:49;;;;;;;11.00;10.20;;;;;;;20.93;38.58;95527.81;6199260;28;103882;-59
2022/05/07 01:55:51;;;;;;;11.37;10.40;;;;;;;20.89;38.54;95518.84;6202503;28;105172;-58
2022/05/07 01:58:52;;;;;;;10.40;9.60;;;;;;;20.88;38.77;95512.72;6206196;28;104807;-59
2022/05/07 02:01:54;;;;;;;10.80;9.80;;;;;;;20.92;38.60;95518.25;6192072;28;103834;-59
2022/05/07 02:04:56;;;;;;;10.53;9.77;;;;;;;20.89;38.63;95521.50;6178167;28;104856;-59
2022/05/07 02:07:58;;;;;;;10.20;9.37;;;;;;;20.90;38.74;95521.22;6181838;28;103879;-59
2022/05/07 02:11:01;;;;;;;10.57;9.77;;;;;;;20.89;38.75;95519.63;6191252;28;104931;-59
2022/05/07 02:14:03;;;;;;;10.00;9.20;;;;;;;20.88;38.57;95523.38;6209336;28;104878;-59
2022/05/07 02:17:04;;;;;;;9.63;8.87;;;;;;;20.87;38.62;95521.00;6182631;28;104841;-59
2022/05/07 02:20:07;;;;;;;8.97;8.30;;;;;;;20.86;38.80;95516.75;6209409;28;103723;-60
2022/05/07 02:23:09;;;;;;;8.33;7.73;;;;;;;20.87;38.62;95521.00;6206770;28;104973;-58
2022/05/07 02:26:10;;;;;;;9.30;8.60;;;;;;;20.89;38.48;95521.50;6211317;28;104677;-59
2022/05/07 02:29:14;;;;;;;10.17;8.53;;;;;;;20.85;38.32;95509.84;6199627;28;103594;-59
2022/05/07 02:32:17;;;;;;;8.60;7.90;;;;;;;20.88;38.63;95525.25;6209644;28;104047;-59
2022/05/07 02:35:21;;;;;;;8.83;8.13;;;;;;;20.88;38.60;95527.91;6208795;28;103356;-59
2022/05/07 02:38:23;;;;;;;7.90;7.30;;;;;;;20.89;38.11;95527.59;6204581;28;103962;-59
2022/05/07 02:44:45;;;;;;;8.03;7.33;;;;;;;20.88;38.35;95525.25;6209052;28;104650;-59
2022/05/07 02:47:46;;;;;;;8.23;7.43;;;;;;;20.85;38.24;95523.94;6193038;28;103740;-60
2022/05/07 02:50:48;;;;;;;7.60;6.90;;;;;;;20.87;38.35;95527.09;6190396;28;104902;-60
2022/05/07 02:53:50;;;;;;;8.07;7.43;;;;;;;20.85;38.25;95534.59;6194953;28;103665;-59
2022/05/07 02:56:52;;;;;;;7.97;7.27;;;;;;;20.84;38.15;95534.88;6200806;28;103752;-60
2022/05/07 02:59:54;;;;;;;7.80;7.17;;;;;;;20.84;38.15;95527.69;6206093;28;104734;-60
2022/05/07 03:02:56;;;;;;;6.73;6.20;;;;;;;20.83;38.35;95528.72;6196753;28;104987;-60
2022/05/07 03:05:59;;;;;;;7.27;6.73;;;;;;;20.82;38.14;95540.44;6209337;28;103659;-60
2022/05/07 03:09:02;;;;;;;6.27;5.77;;;;;;;20.81;38.10;95530.88;6208821;28;104681;-60
2022/05/07 03:12:04;;;;;;;6.33;5.73;;;;;;;20.83;38.10;95534.06;6204385;28;104765;-60
2022/05/07 03:15:06;;;;;;;7.30;6.73;;;;;;;20.84;38.45;95538.31;6203566;28;103907;-60
2022/05/07 03:18:08;;;;;;;7.30;6.70;;;;;;;20.80;38.25;95531.19;6199811;28;103587;-60
2022/05/07 03:21:10;;;;;;;6.23;5.80;;;;;;;20.79;38.19;95535.72;6209164;28;104679;-60
2022/05/07 03:24:11;;;;;;;5.60;5.20;;;;;;;20.78;38.24;95539.44;6179741;28;104785;-59
2022/05/07 03:27:13;;;;;;;6.50;6.00;;;;;;;20.79;38.09;95530.38;6208063;28;104364;-60
2022/05/07 03:30:15;;;;;;;5.93;5.53;;;;;;;20.79;38.20;95532.25;6204986;28;103928;-60
2022/05/07 03:33:17;;;;;;;6.80;6.30;;;;;;;20.73;38.02;95518.22;6198130;28;103705;-61
2022/05/07 03:36:19;;;;;;;5.93;5.43;;;;;;;20.78;38.12;95523.47;6177722;28;103878;-58
2022/05/07 03:39:21;;;;;;;5.87;5.47;;;;;;;20.80;37.93;95531.19;6185184;28;104432;-59
2022/05/07 03:42:23;;;;;;;6.47;5.87;;;;;;;20.78;37.94;95523.47;6206055;28;104006;-59
2022/05/07 03:45:25;;;;;;;5.53;5.03;;;;;;;20.81;37.71;95530.88;6197563;28;103720;-57
2022/05/07 03:48:29;;;;;;;6.20;5.60;;;;;;;20.78;37.88;95531.47;6176230;28;105029;-57
2022/05/07 03:53:29;;;;;;;5.30;4.90;;;;;;;20.78;37.74;95544.75;6206590;28;103646;-53
2022/05/07 03:54:52;;;;;;;5.50;5.07;;;;;;;20.80;38.09;95536.50;6199302;28;103996;-56
2022/05/07 03:57:54;;;;;;;5.80;5.40;;;;;;;20.78;37.80;95543.97;6204230;28;103828;-56
2022/05/07 04:00:58;;;;;;;5.63;5.20;;;;;;;20.75;37.76;95544.53;6202794;28;104847;-55
2022/05/07 04:03:59;;;;;;;5.07;4.60;;;;;;;20.75;38.04;95548.00;6202143;28;103570;-55
2022/05/07 04:07:02;;;;;;;5.10;4.57;;;;;;;20.63;37.26;95548.38;6206170;28;104906;-56
2022/05/07 04:10:05;;;;;;;4.47;4.07;;;;;;;20.53;36.93;95555.72;6197321;28;104817;-56
2022/05/07 04:13:07;;;;;;;4.73;3.97;;;;;;;20.40;36.46;95559.81;6209137;28;104936;-57
2022/05/07 04:16:09;;;;;;;4.97;4.13;;;;;;;20.41;36.04;95555.28;6206751;28;104852;-56
2022/05/07 04:19:11;;;;;;;5.40;3.80;;;;;;;20.35;36.19;95556.44;6209355;28;103598;-56
2022/05/07 04:22:13;;;;;;;4.70;4.30;;;;;;;20.31;35.66;95549.00;6194935;28;104915;-55
2022/05/07 04:25:15;;;;;;;6.90;4.30;;;;;;;20.28;35.69;95551.44;6197188;28;105641;-56
2022/05/07 04:28:16;;;;;;;4.60;4.20;;;;;;;20.27;35.37;95544.53;6207734;28;103858;-54
2022/05/07 04:31:18;;;;;;;4.13;3.73;;;;;;;20.22;35.57;95558.63;6207838;28;104886;-56
2022/05/07 04:34:22;;;;;;;4.67;3.43;;;;;;;20.17;35.61;95549.94;6195322;28;104735;-56
2022/05/07 04:37:25;;;;;;;5.30;3.63;;;;;;;20.21;35.26;95554.41;6197468;28;103872;-56
2022/05/07 04:40:27;;;;;;;7.43;3.87;;;;;;;20.19;35.45;95553.09;6183445;28;104017;-56
2022/05/07 04:43:28;;;;;;;6.03;3.83;;;;;;;20.13;35.43;95549.69;6180351;28;105360;-58
2022/05/07 04:46:30;;;;;;;4.67;3.83;;;;;;;20.15;35.59;95554.72;6214744;28;105093;-53
2022/05/07 04:49:32;;;;;;;5.13;3.63;;;;;;;20.10;35.59;95555.56;6207432;28;103639;-56
2022/05/07 04:52:34;;;;;;;4.47;4.03;;;;;;;20.13;35.41;95547.03;6205372;28;103711;-59
2022/05/07 04:55:36;;;;;;;4.70;3.63;;;;;;;20.14;35.54;95555.78;6186095;28;103863;-56
2022/05/07 04:58:37;;;;;;;5.10;3.60;;;;;;;20.15;35.45;95555.50;6203300;28;103790;-56
2022/05/07 05:01:39;;;;;;;6.80;3.80;;;;;;;20.12;35.51;95553.41;6196729;28;103886;-58
2022/05/07 05:04:41;;;;;;;4.00;3.70;;;;;;;20.09;35.62;95548.66;6191593;28;103726;-57
2022/05/07 05:07:44;;;;;;;6.70;3.70;;;;;;;19.98;35.79;95547.94;6194964;28;104648;-62
2022/05/07 05:10:51;;;;;;;4.53;4.03;;;;;;;20.05;35.70;95552.16;6205561;28;104369;-55
2022/05/07 05:13:53;;;;;;;5.17;3.40;;;;;;;20.08;35.87;95548.94;6199057;28;103046;-57
2022/05/07 05:16:55;;;;;;;4.20;3.30;;;;;;;20.07;35.91;95555.34;6195581;28;105139;-57
2022/05/07 05:19:57;;;;;;;5.13;4.30;;;;;;;20.06;36.05;95557.19;6184410;28;103570;-56
2022/05/07 05:22:59;;;;;;;4.73;4.33;;;;;;;20.10;36.00;95550.25;6193321;28;103683;-57
2022/05/07 05:26:01;;;;;;;4.43;3.70;;;;;;;20.11;36.12;95551.81;6206927;28;103475;-57
2022/05/07 05:29:03;;;;;;;5.03;4.27;;;;;;;20.13;36.10;95551.53;6198869;28;105004;-56
2022/05/07 05:32:05;;;;;;;4.37;3.97;;;;;;;20.15;36.30;95552.84;6195227;28;103589;-57
2022/05/07 05:35:07;;;;;;;4.73;4.10;;;;;;;20.20;36.13;95554.69;6185447;28;105017;-57
2022/05/07 05:38:09;;;;;;;7.90;4.87;;;;;;;20.24;36.21;95553.03;6183743;28;104147;-57
2022/05/07 05:41:11;;;;;;;4.97;4.47;;;;;;;20.31;36.47;95550.88;6173366;28;103974;-56
2022/05/07 05:44:13;;;;;;;6.87;4.70;;;;;;;20.35;36.19;95549.25;6189416;28;104542;-56
2022/05/07 05:47:15;;;;;;;5.10;4.70;;;;;;;20.43;36.13;95551.28;6202352;28;104231;-58
2022/05/07 05:50:16;;;;;;;6.63;5.27;;;;;;;20.42;36.51;95552.34;6204206;28;103714;-58
2022/05/07 05:53:18;;;;;;;6.07;5.07;;;;;;;20.38;36.50;95550.56;6184949;28;105606;-57
2022/05/07 05:56:20;;;;;;;5.70;5.13;;;;;;;20.38;36.31;95542.56;6223112;28;103918;-58
2022/05/07 05:59:21;;;;;;;7.90;4.90;;;;;;;20.46;36.58;95555.22;6188279;28;104540;-58
2022/05/07 06:02:23;;;;;;;11.67;4.60;;;;;;;20.34;36.39;95554.84;6200391;28;103803;-57
2022/05/07 06:05:25;;;;;;;4.87;4.43;;;;;;;20.54;36.29;95555.41;6203130;28;104244;-58
2022/05/07 06:08:27;;;;;;;4.70;4.30;;;;;;;20.49;36.51;95555.47;6201170;28;104658;-59
2022/05/07 06:11:29;;;;;;;7.53;4.07;;;;;;;20.37;36.37;95554.28;6202436;28;103630;-59
2022/05/07 06:14:31;;;;;;;4.70;4.03;;;;;;;20.54;37.06;95555.41;6180260;28;103782;-59
2022/05/07 06:17:32;;;;;;;9.13;4.27;;;;;;;20.54;36.12;95554.63;6190455;28;103437;-58
2022/05/07 06:20:34;;;;;;;5.30;4.10;;;;;;;20.54;36.24;95563.41;6209354;28;104856;-58
2022/05/07 06:23:36;;;;;;;7.10;4.57;;;;;;;20.47;36.21;95556.81;6202691;28;104831;-57
2022/05/07 06:29:59;;;;;;;6.17;5.10;;;;;;;20.45;36.07;95557.09;6237455;28;103765;-58
2022/05/07 06:33:02;;;;;;;9.50;5.87;;;;;;;20.40;36.48;95557.16;6212710;28;103936;-57
2022/05/07 06:36:06;;;;;;;4.70;4.30;;;;;;;20.42;36.27;95562.19;6210084;28;103766;-56
2022/05/07 06:39:07;;;;;;;8.10;4.80;;;;;;;20.56;36.22;95553.25;6181178;28;104706;-56
2022/05/07 06:42:11;;;;;;;5.00;4.40;;;;;;;20.72;36.16;95559.22;6186424;28;103713;-56
2022/05/07 06:45:13;;;;;;;5.40;4.20;;;;;;;20.79;35.96;95556.97;6187230;28;103841;-56
2022/05/07 06:48:14;;;;;;;6.43;4.80;;;;;;;20.90;35.74;95549.69;6181264;28;104856;-57
2022/05/07 06:51:16;;;;;;;5.60;4.40;;;;;;;20.98;35.56;95554.34;6181884;28;103780;-57
2022/05/07 06:54:18;;;;;;;4.83;4.23;;;;;;;21.07;35.37;95555.34;6186566;28;103807;-57
2022/05/07 06:57:19;;;;;;;6.07;4.60;;;;;;;21.14;35.41;95547.00;6183519;28;104826;-57
2022/05/07 07:00:21;;;;;;;5.93;4.63;;;;;;;21.15;35.53;95537.94;6173642;28;103430;-56
2022/05/07 07:03:24;;;;;;;5.20;4.70;;;;;;;21.25;35.47;95540.47;6183992;28;105291;-57
2022/05/07 07:06:26;;;;;;;4.63;4.23;;;;;;;21.32;35.06;95540.88;6199633;28;103833;-56
2022/05/07 07:09:28;;;;;;;5.53;4.40;;;;;;;21.39;35.24;95540.53;6208921;28;103789;-57
2022/05/07 07:12:29;;;;;;;5.20;4.70;;;;;;;21.44;35.10;95540.47;6201088;28;103613;-57
2022/05/07 07:15:39;;;;;;;5.20;4.73;;;;;;;21.48;35.01;95525.47;6211634;28;103654;-56
2022/05/07 07:18:40;;;;;;;4.87;4.00;;;;;;;21.52;35.03;95532.63;6211291;28;103859;-57
2022/05/07 07:21:43;;;;;;;4.77;4.33;;;;;;;21.55;35.12;95525.91;6211301;28;103835;-55
2022/05/07 07:24:45;;;;;;;5.30;4.80;;;;;;;21.57;35.11;95526.41;6202912;28;103592;-57
2022/05/07 07:27:47;;;;;;;6.47;4.70;;;;;;;21.59;35.09;95526.91;6211083;28;104886;-55
2022/05/07 07:30:49;;;;;;;4.63;4.23;;;;;;;21.60;35.16;95517.06;6211601;28;104673;-57
2022/05/07 07:33:50;;;;;;;4.87;4.47;;;;;;;21.65;34.92;95524.94;6202778;28;103626;-54
2022/05/07 07:36:52;;;;;;;5.40;4.43;;;;;;;21.66;34.95;95513.22;6208341;28;105018;-54
2022/05/07 07:39:54;;;;;;;4.60;4.20;;;;;;;21.73;34.94;95517.09;6210666;28;103992;-57
2022/05/07 07:42:56;;;;;;;5.43;4.80;;;;;;;21.77;34.93;95512.78;6210327;28;103738;-56
2022/05/07 07:49:18;;;;;;;4.50;4.10;;;;;;;21.90;35.12;95505.13;6209595;28;104748;-57
2022/05/07 07:52:20;;;;;;;3.90;3.60;;;;;;;21.96;34.81;95504.75;6210594;28;103645;-55
2022/05/07 07:55:22;;;;;;;4.77;4.27;;;;;;;21.98;35.05;95507.13;6210165;28;103867;-54
2022/05/07 07:58:24;;;;;;;4.30;3.90;;;;;;;22.02;34.56;95500.94;6199843;28;104757;-56
2022/05/07 08:01:26;;;;;;;4.30;4.00;;;;;;;22.00;34.61;95505.75;6211164;28;104898;-56
2022/05/07 08:04:27;;;;;;;4.80;3.80;;;;;;;22.08;34.87;95507.75;6209753;28;105061;-57
2022/05/07 08:14:13;;;;;;;4.37;3.97;;;;;;;22.10;34.24;95510.91;6209536;28;103847;-54
2022/05/07 08:17:15;;;;;;;4.37;3.97;;;;;;;22.03;34.48;95502.50;6209675;28;103938;-57
2022/05/07 08:20:17;;;;;;;4.23;3.83;;;;;;;22.02;34.08;95510.81;6197631;28;103720;-53
2022/05/07 08:23:18;;;;;;;6.63;4.07;;;;;;;21.84;34.42;95509.75;6206325;28;104927;-57
2022/05/07 08:26:20;;;;;;;4.37;3.97;;;;;;;21.66;34.56;95510.56;6208901;28;104002;-59
2022/05/07 08:29:23;;;;;;;15.20;5.10;;;;;;;21.60;34.58;95512.50;6209218;28;103925;-59
2022/05/07 08:32:25;;;;;;;9.10;4.27;;;;;;;21.56;35.04;95508.84;6197533;28;105205;-58
2022/05/07 08:35:26;;;;;;;11.07;4.63;;;;;;;21.43;34.92;95507.72;6209180;28;103727;-58
2022/05/07 08:38:28;;;;;;;4.90;4.50;;;;;;;21.36;34.75;95503.84;6191035;28;103926;-58
2022/05/07 08:41:30;;;;;;;6.77;5.00;;;;;;;21.34;34.83;95498.00;6204437;28;104931;-56
2022/05/07 08:44:33;;;;;;;8.80;5.13;;;;;;;21.40;35.38;95500.31;6201978;28;103647;-57
2022/05/07 08:47:35;;;;;;;8.10;5.30;;;;;;;21.39;35.38;95496.06;6207979;28;104750;-58
2022/05/07 08:50:39;;;;;;;7.47;4.30;;;;;;;21.44;35.77;95497.84;6198889;28;103743;-59
2022/05/07 08:53:43;;;;;;;6.33;5.00;;;;;;;21.44;36.41;95498.66;6194413;28;103539;-59
2022/05/07 08:56:45;;;;;;;5.20;4.70;;;;;;;21.39;37.67;95500.59;6202991;28;105007;-59
2022/05/07 08:59:52;;;;;;;6.50;4.30;;;;;;;21.37;38.38;95490.25;6206478;28;103722;-59
2022/05/07 09:02:59;;;;;;;5.00;4.50;;;;;;;21.54;37.87;95492.38;6203259;28;103772;-58
2022/05/07 09:06:01;;;;;;;9.87;4.33;;;;;;;21.63;38.12;95490.63;6196586;28;103898;-59
2022/05/07 09:09:07;;;;;;;6.87;4.80;;;;;;;21.71;38.30;95483.84;6189812;28;104658;-59
2022/05/07 09:12:08;;;;;;;9.00;4.90;;;;;;;21.66;39.48;95489.25;6203976;28;103726;-59
2022/05/07 09:15:10;;;;;;;5.23;4.37;;;;;;;21.76;39.06;95487.22;6191225;28;103926;-57
2022/05/07 09:18:18;;;;;;;6.23;4.50;;;;;;;21.90;39.08;95483.81;6183042;28;103868;-59
2022/05/07 09:21:24;;;;;;;5.77;4.37;;;;;;;21.96;39.41;95479.97;6204970;28;103987;-58
2022/05/07 09:24:26;;;;;;;6.10;4.60;;;;;;;22.00;39.84;95487.09;6203753;28;104826;-60
2022/05/07 09:27:28;;;;;;;5.37;4.40;;;;;;;22.02;39.14;95474.28;6195542;28;104087;-58
2022/05/07 09:30:30;;;;;;;5.03;4.13;;;;;;;22.01;40.56;95483.38;6204755;28;103824;-59
2022/05/07 09:33:35;;;;;;;6.60;4.70;;;;;;;21.91;40.29;95472.88;6200801;28;103865;-59
2022/05/07 09:36:36;;;;;;;4.70;4.30;;;;;;;21.88;40.00;95465.47;6205316;28;104143;-59
2022/05/07 09:39:38;;;;;;;5.03;4.47;;;;;;;21.86;39.79;95467.63;6193201;28;103869;-59
2022/05/07 09:42:42;;;;;;;4.80;4.30;;;;;;;21.82;40.07;95458.63;6197596;28;104246;-59
2022/05/07 09:45:44;;;;;;;5.17;4.57;;;;;;;21.85;40.15;95460.72;6203414;28;105122;-58
2022/05/07 09:48:46;;;;;;;4.70;4.10;;;;;;;21.85;39.36;95454.63;6196230;28;103663;-59
2022/05/07 09:51:50;;;;;;;4.27;3.87;;;;;;;21.86;38.93;95456.19;6191892;28;103724;-59
2022/05/07 09:58:15;;;;;;;5.40;4.00;;;;;;;21.81;38.44;95449.81;6205836;28;103664;-57
2022/05/07 10:01:39;;;;;;;4.80;3.53;;;;;;;21.77;38.55;95458.69;6197944;28;104973;-58
2022/05/07 10:05:10;;;;;;;3.37;3.07;;;;;;;21.74;37.85;95453.97;6196409;28;104760;-59
2022/05/07 10:08:20;;;;;;;4.97;3.67;;;;;;;21.73;37.81;95452.38;6206132;28;104866;-58
2022/05/07 10:11:23;;;;;;;3.67;3.37;;;;;;;21.73;37.66;95444.41;6203965;28;104988;-59
2022/05/07 10:14:27;;;;;;;3.90;3.60;;;;;;;21.73;37.42;95452.38;6183766;28;104689;-59
2022/05/07 10:17:29;;;;;;;4.00;3.70;;;;;;;21.72;37.83;95440.16;6200004;28;104797;-59
2022/05/07 10:20:43;;;;;;;5.80;4.17;;;;;;;21.72;38.41;95430.28;6204111;28;103654;-58
2022/05/07 10:23:56;;;;;;;3.90;3.60;;;;;;;21.71;38.20;95439.38;6197533;28;104704;-59
2022/05/07 10:26:57;;;;;;;3.80;3.50;;;;;;;21.58;37.92;95413.47;6200085;28;104949;-59
2022/05/07 10:30:07;;;;;;;4.20;3.90;;;;;;;21.71;37.42;95443.91;6203953;28;104670;-59
2022/05/07 10:33:09;;;;;;;4.10;3.60;;;;;;;21.68;37.49;95431.97;6199468;28;103870;-59
2022/05/07 10:36:11;;;;;;;6.20;3.60;;;;;;;21.37;35.48;95420.25;6199434;27;103943;-59
2022/05/07 10:39:18;;;;;;;4.57;4.17;;;;;;;21.50;37.01;95420.25;6206874;28;103463;-59
2022/05/07 10:42:22;;;;;;;4.40;4.00;;;;;;;21.62;36.57;95429.66;6204046;28;104201;-56
2022/05/07 10:45:24;;;;;;;4.80;4.03;;;;;;;21.68;36.42;95409.88;6200587;28;104853;-57
2022/05/07 10:48:25;;;;;;;4.10;3.70;;;;;;;21.73;36.22;95415.09;6195101;28;104669;-60
2022/05/07 10:51:37;;;;;;;5.40;3.83;;;;;;;21.72;36.40;95403.66;6208661;28;104129;-57
2022/05/07 10:54:45;;;;;;;4.03;3.57;;;;;;;21.73;36.00;95417.75;6204627;28;103912;-57
2022/05/07 10:57:48;;;;;;;5.17;4.17;;;;;;;21.74;35.65;95403.34;6202892;28;103702;-57
2022/05/07 11:00:50;;;;;;;4.23;3.93;;;;;;;21.73;35.64;95405.22;6202237;28;103693;-56
2022/05/07 11:04:04;;;;;;;3.97;3.57;;;;;;;21.73;35.16;95404.44;6204262;28;103686;-57
2022/05/07 11:07:05;;;;;;;4.53;3.80;;;;;;;21.74;34.93;95403.34;6206546;28;103855;-58
2022/05/07 11:10:09;;;;;;;3.93;3.63;;;;;;;21.73;34.87;95401.78;6197186;28;104215;-57
2022/05/07 11:13:15;;;;;;;4.60;3.97;;;;;;;21.70;34.85;95397.03;6210281;28;103663;-56
2022/05/07 11:16:18;;;;;;;4.67;4.27;;;;;;;21.67;34.94;95389.63;6214030;28;103730;-57
2022/05/07 11:19:46;;;;;;;4.00;3.70;;;;;;;21.75;34.76;95388.94;6211316;28;104005;-57
2022/05/07 11:22:58;;;;;;;4.83;4.30;;;;;;;21.76;34.88;95383.31;6178056;28;104766;-58
2022/05/07 11:26:09;;;;;;;4.83;4.43;;;;;;;21.78;34.88;95383.03;6210027;28;103667;-58
2022/05/07 11:29:11;;;;;;;4.83;4.43;;;;;;;21.81;35.08;95385.09;6208731;28;103924;-57
2022/05/07 11:32:13;;;;;;;4.50;4.10;;;;;;;21.81;35.29;95385.88;6199376;28;104120;-57
2022/05/07 11:35:15;;;;;;;4.70;4.30;;;;;;;21.81;35.61;95374.44;6209539;28;103812;-57
2022/05/07 11:38:17;;;;;;;4.50;4.10;;;;;;;21.80;35.72;95372.84;6208213;28;103671;-57
2022/05/07 11:41:22;;;;;;;4.10;3.80;;;;;;;21.82;35.83;95376.03;6208739;28;103843;-58
2022/05/07 11:48:18;;;;;;;4.70;3.90;;;;;;;21.81;36.12;95369.13;6207370;28;104202;-57
2022/05/07 11:51:25;;;;;;;4.10;3.80;;;;;;;21.83;36.30;95366.19;6210007;28;105044;-57
2022/05/07 11:54:26;;;;;;;4.30;4.00;;;;;;;21.78;36.37;95361.72;6203643;28;104927;-57
2022/05/07 11:57:33;;;;;;;4.33;3.90;;;;;;;21.83;36.30;95356.31;6203224;28;104679;-57
2022/05/07 12:00:44;;;;;;;5.37;4.90;;;;;;;21.83;36.49;95353.66;6206673;28;103104;-57
2022/05/07 12:03:46;;;;;;;8.80;7.97;;;;;;;21.84;36.72;95359.75;6209226;28;105034;-57
2022/05/07 12:06:58;;;;;;;8.20;7.50;;;;;;;21.85;36.94;95358.72;6198597;28;103553;-57
2022/05/07 12:10:00;;;;;;;9.27;8.47;;;;;;;21.86;37.11;95354.97;6208481;28;104379;-57
2022/05/07 12:13:03;;;;;;;9.23;8.37;;;;;;;21.86;37.20;95352.28;6214159;28;104712;-58
2022/05/07 12:19:25;;;;;;;8.90;8.20;;;;;;;21.84;37.49;95349.91;6209783;28;104250;-57
2022/05/07 12:32:28;;;;;;;8.23;7.60;;;;;;;21.85;37.69;95354.16;6221318;28;103906;-57
2022/05/07 12:35:29;;;;;;;8.80;8.00;;;;;;;21.83;37.63;95348.31;6198948;28;103744;-57
2022/05/07 12:38:31;;;;;;;7.97;7.33;;;;;;;21.83;37.84;95347.53;6220962;28;103858;-56
2022/05/07 12:41:33;;;;;;;8.77;7.97;;;;;;;21.87;37.66;95349.31;6207270;28;103943;-57
2022/05/07 12:44:35;;;;;;;8.20;7.50;;;;;;;21.87;38.04;95344.00;6219293;28;105059;-57
2022/05/07 12:47:38;;;;;;;7.50;6.80;;;;;;;21.86;37.75;95341.63;6211060;28;104639;-57
2022/05/07 12:50:40;;;;;;;7.37;6.80;;;;;;;21.90;37.82;95346.06;6210710;28;103954;-56
2022/05/07 12:53:42;;;;;;;6.93;6.43;;;;;;;21.92;38.16;95346.56;6200785;28;105061;-57
2022/05/07 12:56:45;;;;;;;7.30;6.70;;;;;;;21.92;38.16;95341.22;6210010;28;103845;-58
2022/05/07 12:59:47;;;;;;;8.23;6.70;;;;;;;21.86;38.38;95329.09;6203410;28;106496;-57
2022/05/07 13:02:52;;;;;;;8.17;7.33;;;;;;;21.95;38.57;95337.97;6193895;28;104753;-58
2022/05/07 13:05:54;;;;;;;8.07;7.20;;;;;;;21.80;37.95;95333.69;6206384;28;104025;-58
2022/05/07 13:08:58;;;;;;;7.93;7.23;;;;;;;21.71;37.33;95322.16;6206729;28;103891;-58
2022/05/07 13:12:02;;;;;;;10.37;9.13;;;;;;;21.78;35.68;95329.75;6199698;28;103897;-59
2022/05/07 13:15:04;;;;;;;8.20;7.40;;;;;;;21.83;35.29;95321.69;6202117;28;104597;-58
2022/05/07 13:18:06;;;;;;;8.90;8.10;;;;;;;21.87;35.39;95309.38;6206239;28;104518;-58
2022/05/07 13:21:08;;;;;;;9.83;8.77;;;;;;;21.93;35.95;95313.50;6204242;28;105306;-60
2022/05/07 13:24:11;;;;;;;9.43;8.47;;;;;;;21.98;35.95;95318.72;6192927;28;103592;-58
2022/05/07 13:27:13;;;;;;;9.87;8.07;;;;;;;21.97;36.01;95311.81;6190022;28;104488;-59
2022/05/07 13:30:15;;;;;;;8.63;8.00;;;;;;;22.03;36.25;95304.50;6202646;28;104711;-59
2022/05/07 13:33:17;;;;;;;8.73;7.70;;;;;;;22.03;36.49;95315.97;6199726;28;103811;-59
2022/05/07 13:36:19;;;;;;;10.83;8.00;;;;;;;22.02;36.00;95309.06;6198593;28;103936;-59
2022/05/07 13:39:21;;;;;;;8.27;7.60;;;;;;;22.05;36.32;95321.00;6197612;28;105144;-59
2022/05/07 13:42:23;;;;;;;8.20;7.60;;;;;;;22.05;35.82;95302.34;6197607;28;103543;-55
2022/05/07 13:45:26;;;;;;;7.27;6.67;;;;;;;21.99;35.57;95311.50;6201236;28;104700;-58
2022/05/07 13:48:28;;;;;;;6.63;6.13;;;;;;;21.99;34.77;95298.19;6194460;28;104575;-59
2022/05/07 13:51:30;;;;;;;7.37;6.20;;;;;;;21.97;35.70;95300.34;6197788;28;103782;-58
2022/05/07 13:54:32;;;;;;;6.60;6.00;;;;;;;22.01;36.09;95299.50;6191090;28;104788;-59
2022/05/07 13:57:34;;;;;;;6.77;6.17;;;;;;;22.04;35.80;95312.22;6194940;28;105435;-58
2022/05/07 14:00:36;;;;;;;6.90;6.30;;;;;;;22.03;36.35;95307.19;6194117;28;104085;-60
2022/05/07 14:03:39;;;;;;;6.80;6.20;;;;;;;22.01;35.80;95304.81;6201057;28;103687;-60
2022/05/07 14:06:41;;;;;;;7.40;6.60;;;;;;;22.02;36.22;95303.72;6202982;28;104092;-60
2022/05/07 14:09:47;;;;;;;7.43;6.70;;;;;;;22.07;36.11;95300.94;6206406;28;105025;-59
2022/05/07 14:12:49;;;;;;;9.00;6.33;;;;;;;22.10;36.65;95302.22;6185513;28;104404;-57
2022/05/07 14:15:51;;;;;;;7.10;6.50;;;;;;;22.06;36.90;95290.59;6199386;28;104861;-59
2022/05/07 14:18:55;;;;;;;7.80;5.73;;;;;;;22.09;36.84;95290.78;6202308;28;104693;-60
2022/05/07 14:21:57;;;;;;;6.87;6.27;;;;;;;22.17;36.66;95304.47;6202040;27;103718;-60
2022/05/07 14:25:01;;;;;;;8.30;6.07;;;;;;;22.07;36.81;95300.94;6199980;28;103842;-59
2022/05/07 14:28:06;;;;;;;8.93;6.57;;;;;;;22.04;37.92;95304.22;6208593;28;104655;-60
2022/05/07 14:31:07;;;;;;;15.07;13.57;;;;;;;22.01;38.71;95290.69;6202766;28;106566;-60
2022/05/07 14:34:09;;;;;;;48.90;44.10;;;;;;;22.03;40.64;95302.63;6195231;28;104180;-59
2022/05/07 14:37:13;;;;;;;38.63;34.93;;;;;;;22.03;38.17;95294.63;6207072;28;104281;-59
2022/05/07 14:40:33;;;;;;;240.93;219.90;;;;;;;21.99;42.03;95295.50;6196443;28;105025;-59
2022/05/07 14:43:35;;;;;;;294.80;269.00;;;;;;;21.99;43.09;95300.84;6193520;28;104721;-59
2022/05/07 14:46:37;;;;;;;229.67;209.57;;;;;;;21.97;42.94;95300.34;6191426;28;103666;-59